sensor_id;sensor_type;location;lat;lon;timestamp;pressure;altitude;pressure_sealevel;temperature;humidity
21234;BME280;10774;42.178;26.578;2022-09-09T00:00:28;100279.38;;;18.31;72.96
21234;BME280;10774;42.178;26.578;2022-09-09T00:03:13;100273.81;;;18.42;73.11
21234;BME280;10774;42.178;26.578;2022-09-09T00:08:27;100267.22;;;18.35;73.01
21234;BME280;10774;42.178;26.578;2022-09-09T00:11:00;100276.13;;;18.07;74.53
21234;BME280;10774;42.178;26.578;2022-09-09T00:13:56;100272.88;;;18.13;74.45
21234;BME280;10774;42.178;26.578;2022-09-09T00:16:25;100269.50;;;18.30;73.31
21234;BME280;10774;42.178;26.578;2022-09-09T00:22:08;100252.31;;;18.20;73.70
21234;BME280;10774;42.178;26.578;2022-09-09T00:24:27;100262.63;;;18.26;73.49
21234;BME280;10774;42.178;26.578;2022-09-09T00:27:01;100260.03;;;18.34;72.55
21234;BME280;10774;42.178;26.578;2022-09-09T00:29:28;100263.75;;;18.33;73.18
21234;BME280;10774;42.178;26.578;2022-09-09T00:32:05;100256.19;;;18.27;73.34
21234;BME280;10774;42.178;26.578;2022-09-09T00:34:46;100247.81;;;17.99;73.96
21234;BME280;10774;42.178;26.578;2022-09-09T00:37:11;100264.72;;;18.13;73.78
21234;BME280;10774;42.178;26.578;2022-09-09T00:39:46;100235.06;;;17.90;74.11
21234;BME280;10774;42.178;26.578;2022-09-09T00:42:20;100259.94;;;17.95;74.29
21234;BME280;10774;42.178;26.578;2022-09-09T00:47:49;100256.19;;;17.77;75.65
21234;BME280;10774;42.178;26.578;2022-09-09T00:50:42;100251.31;;;17.81;74.46
21234;BME280;10774;42.178;26.578;2022-09-09T00:56:12;100268.63;;;17.59;76.93
21234;BME280;10774;42.178;26.578;2022-09-09T00:58:42;100258.97;;;17.24;78.79
21234;BME280;10774;42.178;26.578;2022-09-09T01:03:52;100267.59;;;17.29;79.09
21234;BME280;10774;42.178;26.578;2022-09-09T01:06:23;100270.81;;;16.70;80.49
21234;BME280;10774;42.178;26.578;2022-09-09T01:09:29;100272.56;;;16.28;82.29
21234;BME280;10774;42.178;26.578;2022-09-09T01:19:53;100252.22;;;16.33;81.88
21234;BME280;10774;42.178;26.578;2022-09-09T01:28:26;100244.88;;;16.13;80.96
21234;BME280;10774;42.178;26.578;2022-09-09T01:30:53;100259.63;;;16.31;80.16
21234;BME280;10774;42.178;26.578;2022-09-09T01:33:20;100264.44;;;16.28;80.21
21234;BME280;10774;42.178;26.578;2022-09-09T01:35:57;100259.34;;;16.34;80.13
21234;BME280;10774;42.178;26.578;2022-09-09T01:38:25;100248.00;;;16.52;78.72
21234;BME280;10774;42.178;26.578;2022-09-09T01:40:53;100277.75;;;16.74;78.21
21234;BME280;10774;42.178;26.578;2022-09-09T01:43:23;100274.31;;;16.61;78.02
21234;BME280;10774;42.178;26.578;2022-09-09T01:45:54;100280.81;;;16.26;79.74
21234;BME280;10774;42.178;26.578;2022-09-09T01:48:22;100262.59;;;16.17;79.49
21234;BME280;10774;42.178;26.578;2022-09-09T01:50:49;100270.53;;;16.09;81.07
21234;BME280;10774;42.178;26.578;2022-09-09T01:53:15;100264.09;;;16.21;81.02
21234;BME280;10774;42.178;26.578;2022-09-09T01:55:47;100270.19;;;16.34;80.50
21234;BME280;10774;42.178;26.578;2022-09-09T01:58:32;100258.41;;;16.35;80.40
21234;BME280;10774;42.178;26.578;2022-09-09T02:01:19;100265.00;;;16.42;80.70
21234;BME280;10774;42.178;26.578;2022-09-09T02:03:52;100272.13;;;16.55;80.71
21234;BME280;10774;42.178;26.578;2022-09-09T02:06:41;100281.22;;;16.54;81.41
21234;BME280;10774;42.178;26.578;2022-09-09T02:09:11;100272.97;;;16.55;81.30
21234;BME280;10774;42.178;26.578;2022-09-09T02:11:38;100255.16;;;16.41;81.27
21234;BME280;10774;42.178;26.578;2022-09-09T02:14:10;100253.19;;;16.43;80.14
21234;BME280;10774;42.178;26.578;2022-09-09T02:16:41;100268.28;;;16.25;80.87
21234;BME280;10774;42.178;26.578;2022-09-09T02:21:49;100269.41;;;16.55;79.11
21234;BME280;10774;42.178;26.578;2022-09-09T02:24:15;100268.19;;;16.47;78.82
21234;BME280;10774;42.178;26.578;2022-09-09T02:26:42;100256.88;;;16.42;78.67
21234;BME280;10774;42.178;26.578;2022-09-09T02:29:16;100264.34;;;16.50;78.23
21234;BME280;10774;42.178;26.578;2022-09-09T02:31:45;100263.88;;;16.56;77.75
21234;BME280;10774;42.178;26.578;2022-09-09T02:34:13;100264.19;;;16.31;77.77
21234;BME280;10774;42.178;26.578;2022-09-09T02:36:42;100265.34;;;16.06;78.52
21234;BME280;10774;42.178;26.578;2022-09-09T02:39:10;100276.41;;;16.25;78.45
21234;BME280;10774;42.178;26.578;2022-09-09T02:41:39;100264.81;;;16.23;78.46
21234;BME280;10774;42.178;26.578;2022-09-09T02:44:09;100262.09;;;16.23;78.42
21234;BME280;10774;42.178;26.578;2022-09-09T02:52:06;100292.06;;;16.54;78.06
21234;BME280;10774;42.178;26.578;2022-09-09T02:54:33;100285.97;;;16.40;77.98
21234;BME280;10774;42.178;26.578;2022-09-09T02:57:13;100274.66;;;16.35;78.41
21234;BME280;10774;42.178;26.578;2022-09-09T02:59:43;100276.09;;;16.39;78.15
21234;BME280;10774;42.178;26.578;2022-09-09T03:02:09;100262.38;;;16.20;79.21
21234;BME280;10774;42.178;26.578;2022-09-09T03:04:37;100260.66;;;16.19;79.64
21234;BME280;10774;42.178;26.578;2022-09-09T03:07:03;100258.44;;;16.24;79.16
21234;BME280;10774;42.178;26.578;2022-09-09T03:09:29;100249.34;;;16.14;79.88
21234;BME280;10774;42.178;26.578;2022-09-09T03:11:54;100256.47;;;16.15;79.64
21234;BME280;10774;42.178;26.578;2022-09-09T03:14:21;100244.78;;;16.14;79.62
21234;BME280;10774;42.178;26.578;2022-09-09T03:16:53;100248.97;;;15.96;80.42
21234;BME280;10774;42.178;26.578;2022-09-09T03:19:19;100259.47;;;15.89;80.82
21234;BME280;10774;42.178;26.578;2022-09-09T03:21:48;100264.84;;;16.12;79.75
21234;BME280;10774;42.178;26.578;2022-09-09T03:24:14;100281.19;;;16.21;78.86
21234;BME280;10774;42.178;26.578;2022-09-09T03:26:41;100285.78;;;15.99;79.82
21234;BME280;10774;42.178;26.578;2022-09-09T03:29:10;100275.19;;;15.95;80.54
21234;BME280;10774;42.178;26.578;2022-09-09T03:31:38;100258.94;;;15.95;80.43
21234;BME280;10774;42.178;26.578;2022-09-09T03:34:04;100259.47;;;15.89;80.58
21234;BME280;10774;42.178;26.578;2022-09-09T03:36:30;100260.94;;;15.71;81.25
21234;BME280;10774;42.178;26.578;2022-09-09T03:38:56;100275.44;;;15.81;81.91
21234;BME280;10774;42.178;26.578;2022-09-09T03:41:22;100266.09;;;15.85;81.54
21234;BME280;10774;42.178;26.578;2022-09-09T03:43:52;100247.50;;;15.92;81.51
21234;BME280;10774;42.178;26.578;2022-09-09T03:46:22;100255.25;;;15.97;81.21
21234;BME280;10774;42.178;26.578;2022-09-09T03:48:48;100269.03;;;16.05;81.07
21234;BME280;10774;42.178;26.578;2022-09-09T03:51:14;100254.75;;;15.91;80.82
21234;BME280;10774;42.178;26.578;2022-09-09T03:53:41;100266.34;;;16.05;80.92
21234;BME280;10774;42.178;26.578;2022-09-09T03:56:08;100250.31;;;16.13;80.37
21234;BME280;10774;42.178;26.578;2022-09-09T03:58:35;100272.06;;;16.23;80.46
21234;BME280;10774;42.178;26.578;2022-09-09T04:01:06;100265.53;;;16.36;79.98
21234;BME280;10774;42.178;26.578;2022-09-09T04:03:34;100252.97;;;16.35;79.61
21234;BME280;10774;42.178;26.578;2022-09-09T04:06:01;100268.47;;;16.33;79.98
21234;BME280;10774;42.178;26.578;2022-09-09T04:08:28;100267.13;;;16.28;80.16
21234;BME280;10774;42.178;26.578;2022-09-09T04:10:55;100250.09;;;16.05;80.84
21234;BME280;10774;42.178;26.578;2022-09-09T04:13:23;100250.59;;;15.65;83.19
21234;BME280;10774;42.178;26.578;2022-09-09T04:15:54;100260.16;;;16.14;81.86
21234;BME280;10774;42.178;26.578;2022-09-09T04:18:20;100260.03;;;16.15;81.56
21234;BME280;10774;42.178;26.578;2022-09-09T04:20:47;100250.06;;;16.16;81.48
21234;BME280;10774;42.178;26.578;2022-09-09T04:23:13;100248.56;;;16.23;81.27
21234;BME280;10774;42.178;26.578;2022-09-09T04:25:43;100254.16;;;15.99;81.95
21234;BME280;10774;42.178;26.578;2022-09-09T04:28:10;100267.50;;;16.23;80.95
21234;BME280;10774;42.178;26.578;2022-09-09T04:30:36;100238.03;;;16.09;80.86
21234;BME280;10774;42.178;26.578;2022-09-09T04:33:02;100255.25;;;16.19;80.65
21234;BME280;10774;42.178;26.578;2022-09-09T04:35:27;100269.09;;;16.37;80.32
21234;BME280;10774;42.178;26.578;2022-09-09T04:37:52;100262.78;;;16.47;79.66
21234;BME280;10774;42.178;26.578;2022-09-09T04:40:18;100257.41;;;16.36;79.99
21234;BME280;10774;42.178;26.578;2022-09-09T04:42:43;100286.78;;;16.09;81.56
21234;BME280;10774;42.178;26.578;2022-09-09T04:45:09;100264.09;;;16.21;80.62
21234;BME280;10774;42.178;26.578;2022-09-09T04:47:36;100283.56;;;16.04;82.43
21234;BME280;10774;42.178;26.578;2022-09-09T04:50:02;100269.03;;;16.05;82.86
21234;BME280;10774;42.178;26.578;2022-09-09T04:52:27;100270.25;;;16.12;83.59
21234;BME280;10774;42.178;26.578;2022-09-09T04:54:53;100277.66;;;15.99;84.24
21234;BME280;10774;42.178;26.578;2022-09-09T04:57:19;100271.00;;;15.91;85.20
21234;BME280;10774;42.178;26.578;2022-09-09T04:59:45;100260.94;;;15.82;86.00
21234;BME280;10774;42.178;26.578;2022-09-09T05:02:11;100274.41;;;16.27;84.67
21234;BME280;10774;42.178;26.578;2022-09-09T05:04:36;100271.59;;;16.61;82.46
21234;BME280;10774;42.178;26.578;2022-09-09T05:07:02;100274.75;;;16.88;81.29
21234;BME280;10774;42.178;26.578;2022-09-09T05:09:27;100273.03;;;16.87;80.90
21234;BME280;10774;42.178;26.578;2022-09-09T05:11:53;100261.97;;;17.21;79.61
21234;BME280;10774;42.178;26.578;2022-09-09T05:14:18;100257.84;;;17.47;77.87
21234;BME280;10774;42.178;26.578;2022-09-09T05:16:46;100245.75;;;17.51;76.77
21234;BME280;10774;42.178;26.578;2022-09-09T05:19:12;100269.25;;;17.41;78.15
21234;BME280;10774;42.178;26.578;2022-09-09T05:21:38;100275.00;;;17.27;79.24
21234;BME280;10774;42.178;26.578;2022-09-09T05:24:03;100265.53;;;17.01;80.79
21234;BME280;10774;42.178;26.578;2022-09-09T05:26:29;100286.94;;;17.36;79.82
21234;BME280;10774;42.178;26.578;2022-09-09T05:28:55;100272.84;;;17.21;79.76
21234;BME280;10774;42.178;26.578;2022-09-09T05:31:21;100260.38;;;16.97;81.29
21234;BME280;10774;42.178;26.578;2022-09-09T05:33:47;100283.00;;;17.29;80.85
21234;BME280;10774;42.178;26.578;2022-09-09T05:36:16;100283.81;;;17.40;80.70
21234;BME280;10774;42.178;26.578;2022-09-09T05:38:42;100292.44;;;17.55;79.84
21234;BME280;10774;42.178;26.578;2022-09-09T05:41:09;100281.28;;;17.48;80.05
21234;BME280;10774;42.178;26.578;2022-09-09T05:43:36;100281.69;;;17.44;80.75
21234;BME280;10774;42.178;26.578;2022-09-09T05:46:10;100268.31;;;17.73;79.08
21234;BME280;10774;42.178;26.578;2022-09-09T05:48:38;100272.22;;;17.90;77.44
21234;BME280;10774;42.178;26.578;2022-09-09T05:51:05;100304.84;;;17.99;77.97
21234;BME280;10774;42.178;26.578;2022-09-09T05:53:34;100296.31;;;18.14;77.24
21234;BME280;10774;42.178;26.578;2022-09-09T05:56:01;100299.06;;;17.83;79.19
21234;BME280;10774;42.178;26.578;2022-09-09T05:58:29;100312.34;;;18.17;79.23
21234;BME280;10774;42.178;26.578;2022-09-09T06:01:09;100315.97;;;18.27;78.77
21234;BME280;10774;42.178;26.578;2022-09-09T06:03:36;100281.88;;;18.03;78.67
21234;BME280;10774;42.178;26.578;2022-09-09T06:06:04;100312.16;;;18.59;77.13
21234;BME280;10774;42.178;26.578;2022-09-09T06:08:31;100311.38;;;18.97;75.36
21234;BME280;10774;42.178;26.578;2022-09-09T06:11:08;100298.47;;;19.28;74.42
21234;BME280;10774;42.178;26.578;2022-09-09T06:13:34;100287.88;;;18.86;76.07
21234;BME280;10774;42.178;26.578;2022-09-09T06:16:00;100288.59;;;19.07;74.01
21234;BME280;10774;42.178;26.578;2022-09-09T06:18:26;100311.63;;;19.42;72.40
21234;BME280;10774;42.178;26.578;2022-09-09T06:21:02;100311.03;;;19.48;71.44
21234;BME280;10774;42.178;26.578;2022-09-09T06:23:29;100300.16;;;19.48;71.77
21234;BME280;10774;42.178;26.578;2022-09-09T06:28:34;100299.94;;;20.16;68.67
21234;BME280;10774;42.178;26.578;2022-09-09T06:31:02;100278.72;;;20.47;66.67
21234;BME280;10774;42.178;26.578;2022-09-09T06:33:31;100294.38;;;20.81;66.28
21234;BME280;10774;42.178;26.578;2022-09-09T06:35:57;100292.06;;;20.86;66.05
21234;BME280;10774;42.178;26.578;2022-09-09T06:38:23;100288.91;;;21.17;64.72
21234;BME280;10774;42.178;26.578;2022-09-09T06:40:57;100291.25;;;21.11;65.89
21234;BME280;10774;42.178;26.578;2022-09-09T06:43:24;100307.25;;;21.42;66.12
21234;BME280;10774;42.178;26.578;2022-09-09T06:45:59;100299.53;;;21.37;65.98
21234;BME280;10774;42.178;26.578;2022-09-09T06:48:26;100298.22;;;21.67;65.76
21234;BME280;10774;42.178;26.578;2022-09-09T06:51:10;100300.69;;;21.87;67.17
21234;BME280;10774;42.178;26.578;2022-09-09T06:53:40;100281.13;;;22.00;65.34
21234;BME280;10774;42.178;26.578;2022-09-09T06:58:35;100300.00;;;22.53;65.93
21234;BME280;10774;42.178;26.578;2022-09-09T07:01:05;100282.59;;;22.62;64.43
21234;BME280;10774;42.178;26.578;2022-09-09T07:03:31;100283.28;;;22.81;64.67
21234;BME280;10774;42.178;26.578;2022-09-09T07:05:57;100280.53;;;22.81;64.02
21234;BME280;10774;42.178;26.578;2022-09-09T07:08:23;100288.47;;;22.92;62.58
21234;BME280;10774;42.178;26.578;2022-09-09T07:10:52;100294.63;;;23.02;63.14
21234;BME280;10774;42.178;26.578;2022-09-09T07:13:28;100280.44;;;22.90;62.82
21234;BME280;10774;42.178;26.578;2022-09-09T07:15:53;100285.75;;;23.00;62.37
21234;BME280;10774;42.178;26.578;2022-09-09T07:18:19;100286.09;;;23.21;62.74
21234;BME280;10774;42.178;26.578;2022-09-09T07:20:54;100287.59;;;23.40;60.67
21234;BME280;10774;42.178;26.578;2022-09-09T07:23:20;100292.19;;;23.56;60.03
21234;BME280;10774;42.178;26.578;2022-09-09T07:25:45;100278.19;;;23.35;61.53
21234;BME280;10774;42.178;26.578;2022-09-09T07:28:11;100274.75;;;23.49;60.82
21234;BME280;10774;42.178;26.578;2022-09-09T07:30:36;100274.91;;;23.56;60.18
21234;BME280;10774;42.178;26.578;2022-09-09T07:33:02;100281.25;;;23.56;59.83
21234;BME280;10774;42.178;26.578;2022-09-09T07:35:28;100272.66;;;23.84;59.86
21234;BME280;10774;42.178;26.578;2022-09-09T07:37:54;100266.41;;;24.06;60.44
21234;BME280;10774;42.178;26.578;2022-09-09T07:40:20;100267.41;;;24.13;59.34
21234;BME280;10774;42.178;26.578;2022-09-09T07:42:47;100266.41;;;24.06;58.42
21234;BME280;10774;42.178;26.578;2022-09-09T07:45:13;100269.03;;;24.31;59.02
21234;BME280;10774;42.178;26.578;2022-09-09T07:47:39;100260.03;;;24.53;58.82
21234;BME280;10774;42.178;26.578;2022-09-09T07:50:08;100250.66;;;24.70;56.01
21234;BME280;10774;42.178;26.578;2022-09-09T07:52:34;100266.59;;;24.75;52.99
21234;BME280;10774;42.178;26.578;2022-09-09T07:54:59;100248.22;;;24.75;52.66
21234;BME280;10774;42.178;26.578;2022-09-09T07:57:28;100252.91;;;24.90;48.47
21234;BME280;10774;42.178;26.578;2022-09-09T07:59:55;100227.16;;;24.91;47.53
21234;BME280;10774;42.178;26.578;2022-09-09T08:02:22;100257.28;;;25.07;48.44
21234;BME280;10774;42.178;26.578;2022-09-09T08:04:48;100243.69;;;25.06;48.77
21234;BME280;10774;42.178;26.578;2022-09-09T08:07:14;100245.22;;;25.31;48.37
21234;BME280;10774;42.178;26.578;2022-09-09T08:09:39;100254.03;;;25.26;47.96
21234;BME280;10774;42.178;26.578;2022-09-09T08:12:05;100242.59;;;25.15;47.36
21234;BME280;10774;42.178;26.578;2022-09-09T08:14:32;100253.00;;;25.42;47.95
21234;BME280;10774;42.178;26.578;2022-09-09T08:16:57;100238.81;;;25.53;46.19
21234;BME280;10774;42.178;26.578;2022-09-09T08:19:23;100238.63;;;25.70;45.24
21234;BME280;10774;42.178;26.578;2022-09-09T08:21:48;100232.91;;;25.71;44.83
21234;BME280;10774;42.178;26.578;2022-09-09T08:24:14;100231.88;;;25.72;45.26
21234;BME280;10774;42.178;26.578;2022-09-09T08:26:42;100231.41;;;25.69;45.26
21234;BME280;10774;42.178;26.578;2022-09-09T08:29:09;100244.94;;;25.55;44.71
21234;BME280;10774;42.178;26.578;2022-09-09T08:34:06;100222.59;;;25.88;43.82
21234;BME280;10774;42.178;26.578;2022-09-09T08:36:34;100239.56;;;26.21;43.73
21234;BME280;10774;42.178;26.578;2022-09-09T08:39:03;100219.47;;;26.21;43.49
21234;BME280;10774;42.178;26.578;2022-09-09T08:52:31;100210.56;;;26.76;41.58
21234;BME280;10774;42.178;26.578;2022-09-09T08:57:38;100212.66;;;26.96;40.77
21234;BME280;10774;42.178;26.578;2022-09-09T09:00:04;100184.34;;;26.80;40.96
21234;BME280;10774;42.178;26.578;2022-09-09T09:05:27;100196.88;;;27.32;40.26
21234;BME280;10774;42.178;26.578;2022-09-09T09:10:51;100197.88;;;27.53;39.79
21234;BME280;10774;42.178;26.578;2022-09-09T09:13:34;100192.13;;;27.82;38.60
21234;BME280;10774;42.178;26.578;2022-09-09T09:16:48;100175.88;;;28.01;39.04
21234;BME280;10774;42.178;26.578;2022-09-09T09:19:13;100198.66;;;28.16;39.51
21234;BME280;10774;42.178;26.578;2022-09-09T09:21:45;100195.78;;;28.37;38.26
21234;BME280;10774;42.178;26.578;2022-09-09T09:26:42;100186.84;;;28.35;38.44
21234;BME280;10774;42.178;26.578;2022-09-09T09:29:14;100149.19;;;28.21;37.99
21234;BME280;10774;42.178;26.578;2022-09-09T09:31:44;100172.59;;;28.32;37.66
21234;BME280;10774;42.178;26.578;2022-09-09T09:34:10;100172.22;;;28.48;37.41
21234;BME280;10774;42.178;26.578;2022-09-09T09:36:46;100158.41;;;28.68;37.20
21234;BME280;10774;42.178;26.578;2022-09-09T09:39:24;100162.69;;;28.77;36.58
21234;BME280;10774;42.178;26.578;2022-09-09T09:41:50;100159.28;;;28.88;36.45
21234;BME280;10774;42.178;26.578;2022-09-09T09:44:27;100150.59;;;28.91;36.82
21234;BME280;10774;42.178;26.578;2022-09-09T09:47:10;100141.44;;;28.71;36.34
21234;BME280;10774;42.178;26.578;2022-09-09T09:49:36;100161.44;;;28.86;35.74
21234;BME280;10774;42.178;26.578;2022-09-09T09:52:06;100146.53;;;28.87;35.75
21234;BME280;10774;42.178;26.578;2022-09-09T09:54:41;100155.06;;;28.79;36.05
21234;BME280;10774;42.178;26.578;2022-09-09T09:57:13;100139.31;;;28.60;36.33
21234;BME280;10774;42.178;26.578;2022-09-09T09:59:40;100162.09;;;29.02;35.88
21234;BME280;10774;42.178;26.578;2022-09-09T10:04:40;100153.38;;;29.18;36.07
21234;BME280;10774;42.178;26.578;2022-09-09T10:07:18;100156.97;;;29.05;36.59
21234;BME280;10774;42.178;26.578;2022-09-09T10:09:44;100165.72;;;29.02;35.27
21234;BME280;10774;42.178;26.578;2022-09-09T10:17:21;100162.91;;;29.35;36.91
21234;BME280;10774;42.178;26.578;2022-09-09T10:22:36;100141.66;;;29.29;36.95
21234;BME280;10774;42.178;26.578;2022-09-09T10:25:14;100150.56;;;29.44;36.08
21234;BME280;10774;42.178;26.578;2022-09-09T10:36:29;100122.06;;;30.02;35.48
21234;BME280;10774;42.178;26.578;2022-09-09T10:39:19;100134.78;;;30.10;35.36
21234;BME280;10774;42.178;26.578;2022-09-09T10:42:13;100140.44;;;29.83;33.97
21234;BME280;10774;42.178;26.578;2022-09-09T10:47:33;100123.72;;;30.10;35.18
21234;BME280;10774;42.178;26.578;2022-09-09T10:55:27;100110.91;;;30.22;34.36
21234;BME280;10774;42.178;26.578;2022-09-09T10:57:58;100092.50;;;30.34;34.34
21234;BME280;10774;42.178;26.578;2022-09-09T11:00:41;100083.75;;;30.62;32.94
21234;BME280;10774;42.178;26.578;2022-09-09T11:03:26;100083.69;;;30.76;32.91
21234;BME280;10774;42.178;26.578;2022-09-09T11:06:03;100102.09;;;31.13;33.00
21234;BME280;10774;42.178;26.578;2022-09-09T11:08:31;100084.88;;;30.86;31.66
21234;BME280;10774;42.178;26.578;2022-09-09T11:11:12;100107.16;;;30.73;32.30
21234;BME280;10774;42.178;26.578;2022-09-09T11:19:03;100083.19;;;30.85;31.57
21234;BME280;10774;42.178;26.578;2022-09-09T11:21:37;100087.81;;;30.91;31.81
21234;BME280;10774;42.178;26.578;2022-09-09T11:24:19;100084.41;;;30.89;31.19
21234;BME280;10774;42.178;26.578;2022-09-09T11:40:30;100066.03;;;31.38;30.36
21234;BME280;10774;42.178;26.578;2022-09-09T11:43:10;100056.84;;;31.38;29.45
21234;BME280;10774;42.178;26.578;2022-09-09T11:45:39;100053.31;;;31.49;29.67
21234;BME280;10774;42.178;26.578;2022-09-09T11:48:43;100051.22;;;31.26;29.23
21234;BME280;10774;42.178;26.578;2022-09-09T11:56:45;100063.91;;;32.31;28.84
21234;BME280;10774;42.178;26.578;2022-09-09T11:59:27;100034.91;;;32.15;29.27
21234;BME280;10774;42.178;26.578;2022-09-09T12:02:12;100042.06;;;32.34;28.68
21234;BME280;10774;42.178;26.578;2022-09-09T12:04:56;100059.78;;;32.51;28.00
21234;BME280;10774;42.178;26.578;2022-09-09T12:07:33;100052.25;;;32.40;28.34
21234;BME280;10774;42.178;26.578;2022-09-09T12:12:47;100038.66;;;32.20;28.45
21234;BME280;10774;42.178;26.578;2022-09-09T12:15:26;100048.66;;;32.51;28.48
21234;BME280;10774;42.178;26.578;2022-09-09T12:17:58;100020.88;;;32.51;28.02
21234;BME280;10774;42.178;26.578;2022-09-09T12:28:45;100016.88;;;32.47;28.32
21234;BME280;10774;42.178;26.578;2022-09-09T12:31:17;100016.53;;;32.79;29.11
21234;BME280;10774;42.178;26.578;2022-09-09T12:33:47;100017.50;;;32.73;28.66
21234;BME280;10774;42.178;26.578;2022-09-09T12:36:16;100008.22;;;32.91;27.95
21234;BME280;10774;42.178;26.578;2022-09-09T12:38:45;100004.56;;;33.14;28.57
21234;BME280;10774;42.178;26.578;2022-09-09T12:41:25;100005.78;;;33.18;27.88
21234;BME280;10774;42.178;26.578;2022-09-09T12:43:51;100001.28;;;33.17;27.42
21234;BME280;10774;42.178;26.578;2022-09-09T12:48:54;99995.00;;;33.90;26.53
21234;BME280;10774;42.178;26.578;2022-09-09T12:51:40;99989.75;;;33.77;27.46
21234;BME280;10774;42.178;26.578;2022-09-09T12:54:13;99968.66;;;33.81;27.50
21234;BME280;10774;42.178;26.578;2022-09-09T12:56:40;99977.59;;;33.83;26.88
21234;BME280;10774;42.178;26.578;2022-09-09T12:59:22;99971.16;;;33.94;26.51
21234;BME280;10774;42.178;26.578;2022-09-09T13:01:56;99981.41;;;34.22;26.62
21234;BME280;10774;42.178;26.578;2022-09-09T13:04:21;99973.72;;;34.13;27.08
21234;BME280;10774;42.178;26.578;2022-09-09T13:06:47;99975.66;;;34.29;26.08
21234;BME280;10774;42.178;26.578;2022-09-09T13:09:14;99970.09;;;34.29;25.75
21234;BME280;10774;42.178;26.578;2022-09-09T13:11:47;99965.09;;;34.31;26.19
21234;BME280;10774;42.178;26.578;2022-09-09T13:14:19;99953.63;;;34.61;25.75
21234;BME280;10774;42.178;26.578;2022-09-09T13:16:59;99967.59;;;34.83;25.47
21234;BME280;10774;42.178;26.578;2022-09-09T13:19:25;99941.31;;;34.79;26.05
21234;BME280;10774;42.178;26.578;2022-09-09T13:21:54;99951.91;;;34.77;25.02
21234;BME280;10774;42.178;26.578;2022-09-09T13:24:34;99954.94;;;35.14;24.27
21234;BME280;10774;42.178;26.578;2022-09-09T13:27:02;99958.66;;;35.20;24.98
21234;BME280;10774;42.178;26.578;2022-09-09T13:29:29;99933.78;;;34.57;25.79
21234;BME280;10774;42.178;26.578;2022-09-09T13:32:15;99949.69;;;35.18;25.53
21234;BME280;10774;42.178;26.578;2022-09-09T13:34:59;99928.84;;;35.25;25.39
21234;BME280;10774;42.178;26.578;2022-09-09T13:37:36;99935.16;;;35.65;25.40
21234;BME280;10774;42.178;26.578;2022-09-09T13:40:03;99928.84;;;35.47;24.57
21234;BME280;10774;42.178;26.578;2022-09-09T13:42:32;99933.69;;;35.84;24.84
21234;BME280;10774;42.178;26.578;2022-09-09T13:45:00;99927.41;;;36.31;23.37
21234;BME280;10774;42.178;26.578;2022-09-09T13:49:54;99927.03;;;36.49;23.47
21234;BME280;10774;42.178;26.578;2022-09-09T13:52:20;99926.34;;;36.37;23.40
21234;BME280;10774;42.178;26.578;2022-09-09T13:54:51;99941.06;;;36.59;22.79
21234;BME280;10774;42.178;26.578;2022-09-09T13:57:22;99929.44;;;36.78;22.96
21234;BME280;10774;42.178;26.578;2022-09-09T13:59:49;99932.88;;;36.90;22.67
21234;BME280;10774;42.178;26.578;2022-09-09T14:02:15;99934.19;;;37.30;22.00
21234;BME280;10774;42.178;26.578;2022-09-09T14:04:42;99921.94;;;37.46;22.18
21234;BME280;10774;42.178;26.578;2022-09-09T14:07:15;99927.84;;;37.55;22.15
21234;BME280;10774;42.178;26.578;2022-09-09T14:09:43;99929.78;;;37.49;21.96
21234;BME280;10774;42.178;26.578;2022-09-09T14:12:11;99927.00;;;37.64;22.79
21234;BME280;10774;42.178;26.578;2022-09-09T14:14:36;99918.56;;;37.49;22.00
21234;BME280;10774;42.178;26.578;2022-09-09T14:17:02;99904.25;;;37.35;22.16
21234;BME280;10774;42.178;26.578;2022-09-09T14:19:28;99908.47;;;37.43;22.28
21234;BME280;10774;42.178;26.578;2022-09-09T14:21:54;99918.69;;;38.10;21.80
21234;BME280;10774;42.178;26.578;2022-09-09T14:24:19;99901.69;;;37.19;23.04
21234;BME280;10774;42.178;26.578;2022-09-09T14:26:45;99901.22;;;37.52;22.04
21234;BME280;10774;42.178;26.578;2022-09-09T14:29:10;99899.06;;;37.95;21.75
21234;BME280;10774;42.178;26.578;2022-09-09T14:31:35;99892.63;;;38.05;21.87
21234;BME280;10774;42.178;26.578;2022-09-09T14:34:01;99896.78;;;38.28;21.72
21234;BME280;10774;42.178;26.578;2022-09-09T14:36:26;99904.06;;;37.78;21.87
21234;BME280;10774;42.178;26.578;2022-09-09T14:38:52;99903.28;;;37.98;22.14
21234;BME280;10774;42.178;26.578;2022-09-09T14:41:18;99915.19;;;37.42;22.67
21234;BME280;10774;42.178;26.578;2022-09-09T14:43:45;99892.91;;;38.08;21.25
21234;BME280;10774;42.178;26.578;2022-09-09T14:46:13;99905.78;;;38.45;21.25
21234;BME280;10774;42.178;26.578;2022-09-09T14:48:40;99900.63;;;38.88;20.53
21234;BME280;10774;42.178;26.578;2022-09-09T14:51:10;99904.47;;;39.07;20.54
21234;BME280;10774;42.178;26.578;2022-09-09T14:53:38;99906.69;;;39.15;20.88
21234;BME280;10774;42.178;26.578;2022-09-09T14:56:12;99896.81;;;37.87;21.67
21234;BME280;10774;42.178;26.578;2022-09-09T14:58:39;99906.63;;;37.89;21.46
21234;BME280;10774;42.178;26.578;2022-09-09T15:01:10;99879.97;;;38.23;21.78
21234;BME280;10774;42.178;26.578;2022-09-09T15:03:39;99891.22;;;38.07;21.28
21234;BME280;10774;42.178;26.578;2022-09-09T15:06:10;99876.75;;;37.27;21.73
21234;BME280;10774;42.178;26.578;2022-09-09T15:08:36;99878.09;;;37.04;22.15
21234;BME280;10774;42.178;26.578;2022-09-09T15:11:04;99883.75;;;37.14;21.58